Greenview, Illinois
Current Conditions -  °F | °C
As of 2:52 AM on Friday 31 Oct 2014 (Local Time) from KSPI Reporting Station
Overcast Overcast  
Wind Chill: 42°   Ceiling: 7000
Heat Index: 46°   Visibility: 10mi
Dew Point: 42°   Wind: 8mph
Humidity: 86%   Direction: 330°NNW
Pressure: 30.09"   Gusts: NA
Location:  40.08°N, 89.74°W
Report Text: KSPI 310752Z AUTO 33007KT 10SM BKN070 OVC090 08/06 A3009 RMK AO2 SLP191 T00780056
Loading
Personal Weather Stations






























Interactive Weather Map
Tropical Storm Tracking
New forecast layout! Learn more

10-Day Weather Forecast

Advertisements
Track Severe Weather on mobile